createdAt,value
2018-12-15T00:02:21.682Z,0.78
2018-12-15T00:06:29.543Z,0.85
2018-12-15T00:10:35.496Z,0.98
2018-12-15T00:14:41.394Z,0.97
2018-12-15T00:18:47.529Z,0.83
2018-12-15T00:22:53.353Z,0.84
2018-12-15T00:26:59.215Z,0.89
2018-12-15T00:31:05.618Z,0.90
2018-12-15T00:35:11.338Z,0.94
2018-12-15T00:39:17.831Z,0.95
2018-12-15T00:43:23.726Z,0.83
2018-12-15T00:47:29.756Z,0.80
2018-12-15T00:51:35.592Z,0.87
2018-12-15T00:55:41.547Z,0.82
2018-12-15T00:59:47.583Z,0.86
2018-12-15T01:03:56.431Z,0.83
2018-12-15T01:08:02.435Z,1.02
2018-12-15T01:12:08.478Z,0.85
2018-12-15T01:16:14.139Z,0.99
2018-12-15T01:20:20.095Z,0.93
2018-12-15T01:24:26.662Z,0.80
2018-12-15T01:28:32.580Z,0.85
2018-12-15T01:32:38.499Z,0.93
2018-12-15T01:36:44.354Z,0.90
2018-12-15T01:40:50.351Z,0.86
2018-12-15T01:44:56.225Z,0.96
2018-12-15T01:49:02.090Z,0.82
2018-12-15T01:53:08.050Z,0.89
2018-12-15T01:57:14.101Z,0.87
2018-12-15T02:01:20.005Z,0.96
2018-12-15T02:05:25.826Z,0.80
2018-12-15T02:09:32.775Z,0.88
2018-12-15T02:13:38.643Z,0.91
2018-12-15T02:17:44.760Z,0.86
2018-12-15T02:21:50.618Z,0.88
2018-12-15T02:25:56.501Z,0.90
2018-12-15T02:30:02.407Z,0.75
2018-12-15T02:34:08.491Z,0.85
2018-12-15T02:38:14.330Z,0.76
2018-12-15T02:42:20.262Z,0.84
2018-12-15T02:46:27.175Z,0.80
2018-12-15T02:50:33.192Z,0.71
2018-12-15T02:54:39.198Z,0.78
2018-12-15T02:58:45.664Z,0.86
2018-12-15T03:02:52.842Z,0.77
2018-12-15T03:06:58.539Z,0.87
2018-12-15T03:11:04.428Z,0.88
2018-12-15T03:15:10.573Z,0.93
2018-12-15T03:19:16.493Z,0.93
2018-12-15T03:23:23.104Z,0.92
2018-12-15T03:27:28.890Z,0.85
2018-12-15T03:31:34.628Z,0.95
2018-12-15T03:35:40.494Z,1.07
2018-12-15T03:39:46.456Z,1.00
2018-12-15T03:43:52.530Z,0.86
2018-12-15T03:47:58.250Z,0.84
2018-12-15T03:52:04.010Z,0.93
2018-12-15T03:56:11.052Z,0.95
2018-12-15T04:00:16.935Z,0.90
2018-12-15T04:04:22.898Z,0.92
2018-12-15T04:08:28.717Z,0.99
2018-12-15T04:12:34.699Z,0.94
2018-12-15T04:16:40.493Z,0.87
2018-12-15T04:20:46.926Z,0.92
2018-12-15T04:24:52.734Z,0.88
2018-12-15T04:28:58.620Z,0.97
2018-12-15T04:33:04.526Z,0.98
2018-12-15T04:37:10.187Z,0.91
2018-12-15T04:41:15.946Z,0.86
2018-12-15T04:45:21.834Z,0.83
2018-12-15T04:49:27.597Z,0.91
2018-12-15T04:53:33.647Z,0.84
2018-12-15T04:57:39.633Z,0.73
2018-12-15T05:01:45.368Z,0.80
2018-12-15T05:05:51.263Z,0.84
2018-12-15T05:09:56.974Z,0.86
2018-12-15T05:14:02.862Z,0.73
2018-12-15T05:18:08.625Z,0.81
2018-12-15T05:22:15.146Z,0.67
2018-12-15T05:26:21.158Z,0.67
2018-12-15T05:30:27.194Z,0.71
2018-12-15T05:34:33.259Z,0.70
2018-12-15T05:38:39.073Z,0.62
2018-12-15T05:42:44.834Z,0.66
2018-12-15T05:46:54.329Z,0.77
2018-12-15T05:51:00.160Z,0.76
2018-12-15T05:55:06.227Z,0.74
2018-12-15T05:59:18.782Z,0.68
2018-12-15T06:03:24.487Z,0.71
2018-12-15T06:07:30.307Z,0.64
2018-12-15T06:11:37.447Z,0.72
2018-12-15T06:15:43.290Z,0.65
2018-12-15T06:19:49.039Z,0.80
2018-12-15T06:23:55.150Z,0.74
2018-12-15T06:28:01.119Z,0.71
2018-12-15T06:32:06.985Z,0.63
2018-12-15T06:36:12.762Z,0.70
2018-12-15T06:40:18.559Z,0.71
2018-12-15T06:44:24.467Z,0.62
2018-12-15T06:48:30.317Z,0.79
2018-12-15T06:52:36.667Z,0.71
2018-12-15T06:56:42.440Z,0.66
2018-12-15T07:00:48.337Z,0.79
2018-12-15T07:04:54.290Z,0.70
2018-12-15T07:09:00.115Z,0.76
2018-12-15T07:13:07.586Z,0.64
2018-12-15T07:17:13.492Z,0.78
2018-12-15T07:21:19.354Z,0.81
2018-12-15T07:25:25.232Z,0.66
2018-12-15T07:29:31.096Z,0.70
2018-12-15T07:33:36.790Z,0.71
2018-12-15T07:37:43.617Z,0.69
2018-12-15T07:41:49.472Z,0.64
2018-12-15T07:45:55.446Z,0.66
2018-12-15T07:50:01.198Z,0.73
2018-12-15T07:54:08.338Z,0.76
2018-12-15T07:58:14.194Z,0.83
2018-12-15T08:02:20.771Z,0.80
2018-12-15T08:06:26.879Z,0.87
2018-12-15T08:10:36.556Z,0.75
2018-12-15T08:14:42.782Z,0.83
2018-12-15T08:18:48.740Z,0.81
2018-12-15T08:22:54.772Z,0.92
2018-12-15T08:27:01.429Z,0.89
2018-12-15T08:31:07.113Z,1.10
2018-12-15T08:35:12.906Z,0.99
2018-12-15T08:39:18.661Z,0.92
2018-12-15T08:43:25.134Z,0.91
2018-12-15T08:47:30.882Z,0.97
2018-12-15T08:51:36.493Z,1.01
2018-12-15T08:55:42.071Z,1.10
2018-12-15T08:59:48.020Z,0.95
2018-12-15T09:03:53.663Z,1.03
2018-12-15T09:07:59.342Z,1.08
2018-12-15T09:12:05.158Z,1.03
2018-12-15T09:16:11.008Z,1.12
2018-12-15T09:20:18.072Z,1.18
2018-12-15T09:24:24.154Z,1.16
2018-12-15T09:28:30.590Z,1.06
2018-12-15T09:32:36.444Z,1.07
2018-12-15T09:36:44.465Z,1.13
2018-12-15T09:40:50.230Z,1.25
2018-12-15T09:44:56.173Z,1.15
2018-12-15T09:49:01.949Z,1.17
2018-12-15T09:53:07.897Z,1.10
2018-12-15T09:57:13.841Z,1.11
2018-12-15T10:01:20.212Z,1.14
2018-12-15T10:05:26.160Z,1.31
2018-12-15T10:09:34.676Z,1.28
2018-12-15T10:13:45.103Z,1.18
2018-12-15T10:22:18.953Z,1.23
2018-12-15T10:26:25.885Z,1.27
2018-12-15T10:30:36.607Z,1.36
2018-12-15T10:34:43.651Z,1.21
2018-12-15T10:38:50.045Z,1.27
2018-12-15T10:42:57.795Z,1.36
2018-12-15T10:47:04.324Z,1.37
2018-12-15T10:51:12.752Z,1.27
2018-12-15T10:55:19.269Z,1.16
2018-12-15T10:59:25.015Z,1.27
2018-12-15T11:03:31.450Z,1.31
2018-12-15T11:07:37.174Z,1.27
2018-12-15T11:11:43.175Z,1.45
2018-12-15T11:15:49.074Z,1.48
2018-12-15T11:19:55.231Z,1.33
2018-12-15T11:24:01.048Z,1.31
2018-12-15T11:28:08.120Z,1.42
2018-12-15T11:32:14.698Z,1.33
2018-12-15T11:36:20.494Z,1.43
2018-12-15T11:40:26.346Z,1.27
2018-12-15T11:44:32.081Z,1.32
2018-12-15T11:48:39.031Z,1.27
2018-12-15T11:52:44.751Z,1.35
2018-12-15T11:56:50.481Z,1.34
2018-12-15T12:00:56.397Z,1.30
2018-12-15T12:05:02.166Z,1.34
2018-12-15T12:09:09.111Z,1.36
2018-12-15T12:13:16.667Z,1.36
2018-12-15T12:17:22.670Z,1.32
2018-12-15T12:21:28.341Z,1.37
2018-12-15T12:25:34.118Z,1.31
2018-12-15T12:29:41.822Z,1.10
2018-12-15T12:33:47.907Z,1.25
2018-12-15T12:37:53.521Z,1.31
2018-12-15T12:41:59.650Z,1.31
2018-12-15T12:50:34.347Z,1.36
2018-12-15T12:54:40.171Z,1.34
2018-12-15T12:58:47.941Z,1.46
2018-12-15T13:02:53.620Z,1.44
2018-12-15T13:06:59.395Z,1.43
2018-12-15T13:11:05.287Z,1.18
2018-12-15T13:15:11.290Z,1.28
2018-12-15T13:19:17.840Z,1.27
2018-12-15T13:23:23.570Z,1.12
2018-12-15T13:27:29.407Z,1.26
2018-12-15T13:31:35.667Z,1.25
2018-12-15T13:35:41.375Z,1.43
2018-12-15T13:39:47.338Z,1.16
2018-12-15T13:43:54.915Z,1.22
2018-12-15T13:48:01.073Z,1.20
2018-12-15T13:52:07.006Z,1.19
2018-12-15T13:56:12.873Z,1.15
2018-12-15T14:00:18.429Z,1.37
2018-12-15T14:04:24.499Z,1.31
2018-12-15T14:08:30.346Z,1.35
2018-12-15T14:12:36.183Z,1.30
2018-12-15T14:16:42.635Z,1.31
2018-12-15T14:20:48.300Z,1.39
2018-12-15T14:24:54.041Z,1.35
2018-12-15T14:29:00.244Z,1.41
2018-12-15T14:33:05.989Z,1.42
2018-12-15T14:37:18.241Z,1.33
2018-12-15T14:41:25.220Z,1.28
2018-12-15T14:45:30.784Z,1.29
2018-12-15T14:49:36.719Z,1.46
2018-12-15T14:53:42.477Z,1.46
2018-12-15T14:57:48.722Z,1.35
2018-12-15T15:01:55.599Z,1.41
2018-12-15T15:06:01.440Z,1.31
2018-12-15T15:10:08.671Z,1.23
2018-12-15T15:14:14.823Z,1.35
2018-12-15T15:18:21.273Z,1.30
2018-12-15T15:22:27.324Z,1.28
2018-12-15T15:26:35.585Z,1.18
2018-12-15T15:30:41.843Z,1.15
2018-12-15T15:34:47.732Z,1.28
2018-12-15T15:38:54.498Z,1.27
2018-12-15T15:43:01.789Z,1.18
2018-12-15T15:47:08.074Z,1.14
2018-12-15T15:51:14.388Z,1.11
2018-12-15T15:55:20.250Z,1.09
2018-12-15T15:59:27.509Z,0.95
2018-12-15T16:03:33.890Z,0.86
2018-12-15T16:07:40.228Z,0.99
2018-12-15T16:11:46.307Z,1.02
2018-12-15T16:15:52.631Z,0.92
2018-12-15T16:19:58.998Z,0.87
2018-12-15T16:24:05.008Z,0.83
2018-12-15T16:28:12.341Z,0.75
2018-12-15T16:32:18.319Z,0.79
2018-12-15T16:36:24.331Z,0.80
2018-12-15T16:40:30.276Z,0.80
2018-12-15T16:44:36.162Z,0.83
2018-12-15T16:48:41.912Z,0.79
2018-12-15T16:52:48.347Z,0.80
2018-12-15T17:15:50.314Z,0.67
2018-12-15T17:19:56.188Z,0.53
2018-12-15T17:24:01.853Z,0.54
2018-12-15T17:28:08.937Z,0.60
2018-12-15T17:32:15.111Z,0.48
2018-12-15T17:36:20.900Z,0.45
2018-12-15T17:40:26.699Z,0.46
2018-12-15T17:44:32.940Z,0.45
2018-12-15T17:48:38.659Z,0.40
2018-12-15T17:52:44.871Z,0.48
2018-12-15T17:56:52.306Z,0.51
2018-12-15T18:00:59.248Z,0.35
2018-12-15T18:05:05.604Z,0.42
2018-12-15T18:09:11.740Z,0.35
2018-12-15T18:17:32.908Z,0.39
2018-12-15T18:21:41.804Z,0.39
2018-12-15T18:25:47.858Z,0.30
2018-12-15T18:29:54.822Z,0.29
2018-12-15T18:34:00.624Z,0.27
2018-12-15T18:38:06.677Z,0.23
2018-12-15T18:42:13.005Z,0.21
2018-12-15T18:46:18.911Z,0.24
2018-12-15T18:50:24.898Z,0.15
2018-12-15T18:54:31.205Z,0.14
2018-12-15T18:58:37.074Z,0.08
2018-12-15T19:02:42.942Z,0.05
2018-12-15T19:06:48.929Z,0.07
2018-12-15T19:10:54.974Z,0.00
2018-12-15T19:15:02.841Z,-0.05
2018-12-15T19:19:10.694Z,-0.05
2018-12-15T19:23:16.568Z,0.00
2018-12-15T19:27:22.626Z,-0.09
2018-12-15T19:31:28.552Z,-0.10
2018-12-15T19:35:35.201Z,0.06
2018-12-15T19:39:41.229Z,-0.21
2018-12-15T19:43:47.311Z,-0.21
2018-12-15T19:47:53.162Z,-0.26
2018-12-15T19:51:58.943Z,-0.18
2018-12-15T19:56:05.424Z,-0.17
2018-12-15T20:00:11.656Z,-0.27
2018-12-15T20:04:18.376Z,-0.25
2018-12-15T20:08:26.218Z,-0.25
2018-12-15T20:12:33.629Z,-0.23
2018-12-15T20:16:40.871Z,-0.31
2018-12-15T20:20:48.152Z,-0.24
2018-12-15T20:24:55.824Z,-0.28
2018-12-15T20:29:02.149Z,-0.23
2018-12-15T20:33:08.172Z,-0.31
2018-12-15T20:37:14.817Z,-0.21
2018-12-15T20:41:20.819Z,-0.34
2018-12-15T20:45:26.994Z,-0.38
2018-12-15T20:49:33.960Z,-0.37
2018-12-15T20:53:40.125Z,-0.42
2018-12-15T20:57:46.394Z,-0.40
2018-12-15T21:01:52.451Z,-0.34
2018-12-15T21:05:58.296Z,-0.34
2018-12-15T21:10:04.392Z,-0.23
2018-12-15T21:14:10.328Z,-0.34
2018-12-15T21:18:16.223Z,-0.41
2018-12-15T21:22:23.383Z,-0.31
2018-12-15T21:26:29.483Z,-0.43
2018-12-15T21:30:35.719Z,-0.44
2018-12-15T21:34:41.905Z,-0.37
2018-12-15T21:38:47.670Z,-0.45
2018-12-15T21:42:53.854Z,-0.29
2018-12-15T21:46:59.879Z,-0.33
2018-12-15T21:51:05.872Z,-0.45
2018-12-15T21:55:12.016Z,-0.38
2018-12-15T21:59:17.774Z,-0.37
2018-12-15T22:03:25.292Z,-0.46
2018-12-15T22:07:32.404Z,-0.53
2018-12-15T22:11:38.604Z,-0.63
2018-12-15T22:15:44.794Z,-0.59
2018-12-15T22:19:51.353Z,-0.67
2018-12-15T22:23:58.042Z,-0.74
2018-12-15T22:28:04.548Z,-0.90
2018-12-15T22:32:11.770Z,-0.91
2018-12-15T22:36:19.185Z,-0.92
2018-12-15T22:40:25.150Z,-0.97
2018-12-15T22:44:32.497Z,-1.08
2018-12-15T22:48:39.223Z,-1.17
2018-12-15T22:52:47.049Z,-1.12
2018-12-15T22:56:53.833Z,-1.15
2018-12-15T23:01:06.554Z,-1.19
2018-12-15T23:05:14.755Z,-1.27
2018-12-15T23:09:20.862Z,-1.12
2018-12-15T23:13:27.972Z,-1.18
2018-12-15T23:17:34.660Z,-1.17
2018-12-15T23:21:41.383Z,-1.13
2018-12-15T23:25:47.660Z,-1.13
2018-12-15T23:29:54.646Z,-1.07
2018-12-15T23:34:02.117Z,-1.12
2018-12-15T23:38:08.266Z,-1.10
2018-12-15T23:42:14.335Z,-1.17
2018-12-15T23:46:21.727Z,-1.02
2018-12-15T23:50:27.757Z,-1.08
2018-12-15T23:54:33.824Z,-1.13
2018-12-15T23:58:40.106Z,-1.01
